Home > Products > Valid Products > TAF

000
FTUS43 KGRB 212300
TAFGRB
TAF
KGRB 212332Z 2200/2224 16011KT 6SM BR SCT012 OVC035
      TEMPO 2200/2202 2SM -RASN BR BKN012
     FM220200 16010KT 4SM BR OVC012
      TEMPO 2202/2206 2SM -SNDZ BR BKN008
     FM220600 15009KT 3SM BR OVC007
     FM221600 12008KT 5SM BR SCT008 OVC015=



000
FTUS43 KGRB 212300
TAFGRB
TAF
KGRB 212332Z 2200/2224 16011KT 6SM BR SCT012 OVC035
      TEMPO 2200/2202 2SM -RASN BR BKN012
     FM220200 16010KT 4SM BR OVC012
      TEMPO 2202/2206 2SM -SNDZ BR BKN008
     FM220600 15009KT 3SM BR OVC007
     FM221600 12008KT 5SM BR SCT008 OVC015=



000
FTUS43 KGRB 212100 AAA
TAFGRB
TAF AMD
KGRB 212134Z 2122/2218 17008KT 4SM BR SCT015 OVC035
      TEMPO 2122/2123 BKN015
     FM212300 15011KT 4SM BR OVC012
      TEMPO 2123/2203 2SM -SN BR
     FM220300 16010KT 4SM BR OVC008
     FM220800 15009KT 5SM BR OVC008
     FM221500 13008KT 5SM BR SCT008 OVC015=



000
FTUS43 KGRB 212100 AAA
TAFGRB
TAF AMD
KGRB 212134Z 2122/2218 17008KT 4SM BR SCT015 OVC035
      TEMPO 2122/2123 BKN015
     FM212300 15011KT 4SM BR OVC012
      TEMPO 2123/2203 2SM -SN BR
     FM220300 16010KT 4SM BR OVC008
     FM220800 15009KT 5SM BR OVC008
     FM221500 13008KT 5SM BR SCT008 OVC015=



000
FTUS43 KGRB 211700
TAFGRB
TAF
KGRB 211720Z 2118/2218 17009KT 3SM BR OVC010
      TEMPO 2119/2123 2SM -SN BR OVC006
     FM212300 15011KT 3SM BR OVC008
      TEMPO 2123/2203 2SM -SN BR
     FM220300 16010KT 4SM BR OVC008
     FM220800 15009KT 5SM BR OVC008
     FM221500 13008KT 5SM BR SCT008 OVC015=



000
FTUS43 KGRB 211700
TAFGRB
TAF
KGRB 211720Z 2118/2218 17009KT 3SM BR OVC010
      TEMPO 2119/2123 2SM -SN BR OVC006
     FM212300 15011KT 3SM BR OVC008
      TEMPO 2123/2203 2SM -SN BR
     FM220300 16010KT 4SM BR OVC008
     FM220800 15009KT 5SM BR OVC008
     FM221500 13008KT 5SM BR SCT008 OVC015=



000
FTUS43 KGRB 211100
TAFGRB
TAF
KGRB 211137Z 2112/2212 17005KT 5SM BR SCT020 OVC035
      TEMPO 2112/2113 BKN020
     FM211300 17006KT 3SM -FZDZ BR OVC012
     FM211700 16010KT 5SM -DZ BR OVC012
     FM212100 15012KT 4SM -SN BR OVC015
     FM220700 14010KT 4SM -FZDZSN BR SCT006 OVC012=



000
FTUS43 KGRB 211100
TAFGRB
TAF
KGRB 211137Z 2112/2212 17005KT 5SM BR SCT020 OVC035
      TEMPO 2112/2113 BKN020
     FM211300 17006KT 3SM -FZDZ BR OVC012
     FM211700 16010KT 5SM -DZ BR OVC012
     FM212100 15012KT 4SM -SN BR OVC015
     FM220700 14010KT 4SM -FZDZSN BR SCT006 OVC012=



000
FTUS43 KGRB 211000 AAA
TAFGRB
TAF AMD
KGRB 211036Z 2111/2206 VRB03KT 4SM BR SCT020 OVC035
      TEMPO 2111/2113 BKN020
     FM211300 15004KT 4SM -FZDZ BR OVC012
     FM211700 16008KT 6SM -DZ BR OVC015
     FM220300 15011KT 5SM -DZSN BR OVC012=



000
FTUS43 KGRB 211000 AAA
TAFGRB
TAF AMD
KGRB 211036Z 2111/2206 VRB03KT 4SM BR SCT020 OVC035
      TEMPO 2111/2113 BKN020
     FM211300 15004KT 4SM -FZDZ BR OVC012
     FM211700 16008KT 6SM -DZ BR OVC015
     FM220300 15011KT 5SM -DZSN BR OVC012=



000
FTUS43 KGRB 211000 AAA
TAFGRB
TAF AMD
KGRB 211036Z 2111/2206 VRB03KT 4SM BR SCT020 OVC035
      TEMPO 2111/2113 BKN020
     FM211300 15004KT 4SM -FZDZ BR OVC012
     FM211700 16008KT 6SM -DZ BR OVC015
     FM220300 15011KT 5SM -DZSN BR OVC012=



000
FTUS43 KGRB 211000 AAA
TAFGRB
TAF AMD
KGRB 211036Z 2111/2206 VRB03KT 4SM BR SCT020 OVC035
      TEMPO 2111/2113 BKN020
     FM211300 15004KT 4SM -FZDZ BR OVC012
     FM211700 16008KT 6SM -DZ BR OVC015
     FM220300 15011KT 5SM -DZSN BR OVC012=



000
FTUS43 KGRB 210500
TAFGRB
TAF
KGRB 210520Z 2106/2206 VRB03KT 4SM BR OVC030
     FM210800 VRB03KT 4SM -FZDZ BR OVC020
     FM211200 15004KT 4SM -FZDZ BR OVC012
     FM211700 16008KT 6SM -DZ BR OVC015
     FM220300 15011KT 5SM -DZSN BR OVC012=



000
FTUS43 KGRB 210500
TAFGRB
TAF
KGRB 210520Z 2106/2206 VRB03KT 4SM BR OVC030
     FM210800 VRB03KT 4SM -FZDZ BR OVC020
     FM211200 15004KT 4SM -FZDZ BR OVC012
     FM211700 16008KT 6SM -DZ BR OVC015
     FM220300 15011KT 5SM -DZSN BR OVC012=



000
FTUS43 KGRB 210300 AAA
TAFGRB
TAF AMD
KGRB 210306Z 2103/2124 VRB03KT 4SM BR OVC030
     FM210700 VRB03KT 4SM -FZDZ BR OVC012
     FM211200 15004KT 4SM -FZDZ BR OVC009
     FM211700 16008KT 5SM -FZDZ BR OVC012
     FM212100 15011KT 5SM -DZ BR OVC015=



000
FTUS43 KGRB 210300 AAA
TAFGRB
TAF AMD
KGRB 210306Z 2103/2124 VRB03KT 4SM BR OVC030
     FM210700 VRB03KT 4SM -FZDZ BR OVC012
     FM211200 15004KT 4SM -FZDZ BR OVC009
     FM211700 16008KT 5SM -FZDZ BR OVC012
     FM212100 15011KT 5SM -DZ BR OVC015=



000
FTUS43 KGRB 202300
TAFGRB
TAF
KGRB 202340Z 2100/2124 00000KT 5SM -SN BR OVC035
     FM210200 VRB03KT 5SM BR OVC028
     FM210700 VRB03KT 4SM -FZDZ BR OVC012
     FM211200 15004KT 4SM -FZDZ BR OVC009
     FM211700 16008KT 5SM -FZDZ BR OVC012
     FM212100 15011KT 5SM -DZ BR OVC015=



000
FTUS43 KGRB 202300
TAFGRB
TAF
KGRB 202340Z 2100/2124 00000KT 5SM -SN BR OVC035
     FM210200 VRB03KT 5SM BR OVC028
     FM210700 VRB03KT 4SM -FZDZ BR OVC012
     FM211200 15004KT 4SM -FZDZ BR OVC009
     FM211700 16008KT 5SM -FZDZ BR OVC012
     FM212100 15011KT 5SM -DZ BR OVC015=



000
FTUS43 KGRB 201700
TAFGRB
TAF
KGRB 201721Z 2018/2118 VRB03KT 6SM HZ BKN035 OVC080
     FM202200 VRB03KT P6SM OVC030
     FM210300 VRB03KT 5SM BR OVC018
     FM210700 VRB03KT 4SM -FZDZ BR OVC012
     FM211100 15004KT 4SM -FZDZ BR OVC009
     FM211500 16008KT 5SM -FZDZ BR OVC012=



000
FTUS43 KGRB 201700
TAFGRB
TAF
KGRB 201721Z 2018/2118 VRB03KT 6SM HZ BKN035 OVC080
     FM202200 VRB03KT P6SM OVC030
     FM210300 VRB03KT 5SM BR OVC018
     FM210700 VRB03KT 4SM -FZDZ BR OVC012
     FM211100 15004KT 4SM -FZDZ BR OVC009
     FM211500 16008KT 5SM -FZDZ BR OVC012=



000
FTUS43 KGRB 201100
TAFGRB
TAF
KGRB 201129Z 2012/2112 VRB03KT 6SM BR BKN035
     FM201500 17004KT P6SM BKN030 BKN070
     FM210300 17003KT 4SM BR OVC015=



000
FTUS43 KGRB 201100
TAFGRB
TAF
KGRB 201129Z 2012/2112 VRB03KT 6SM BR BKN035
     FM201500 17004KT P6SM BKN030 BKN070
     FM210300 17003KT 4SM BR OVC015=



000
FTUS43 KGRB 200500
TAFGRB
TAF
KGRB 200520Z 2006/2106 VRB02KT P6SM SKC
      TEMPO 2007/2008 BKN025
     FM200800 20003KT 5SM BR BKN025
     FM201500 18004KT P6SM OVC020
     FM210100 VRB03KT 4SM BR OVC015=



000
FTUS43 KGRB 200500
TAFGRB
TAF
KGRB 200520Z 2006/2106 VRB02KT P6SM SKC
      TEMPO 2007/2008 BKN025
     FM200800 20003KT 5SM BR BKN025
     FM201500 18004KT P6SM OVC020
     FM210100 VRB03KT 4SM BR OVC015=



000
FTUS43 KGRB 200300 AAA
TAFGRB
TAF AMD
KGRB 200337Z 2004/2024 20003KT P6SM SCT025
      TEMPO 2004/2006 5SM BR
     FM200600 20003KT 5SM BR BKN025
     FM201500 18004KT P6SM OVC020=



000
FTUS43 KGRB 200300 AAA
TAFGRB
TAF AMD
KGRB 200337Z 2004/2024 20003KT P6SM SCT025
      TEMPO 2004/2006 5SM BR
     FM200600 20003KT 5SM BR BKN025
     FM201500 18004KT P6SM OVC020=



000
FTUS43 KGRB 200300 AAA
TAFGRB
TAF AMD
KGRB 200337Z 2004/2024 20003KT P6SM SCT025
      TEMPO 2004/2006 5SM BR
     FM200600 20003KT 5SM BR BKN025
     FM201500 18004KT P6SM OVC020=



000
FTUS43 KGRB 200300 AAA
TAFGRB
TAF AMD
KGRB 200337Z 2004/2024 20003KT P6SM SCT025
      TEMPO 2004/2006 5SM BR
     FM200600 20003KT 5SM BR BKN025
     FM201500 18004KT P6SM OVC020=



000
FTUS43 KGRB 192300
TAFGRB
TAF
KGRB 192323Z 2000/2024 20003KT P6SM SCT025
      TEMPO 2001/2003 BKN025
     FM200300 20003KT P6SM BKN022
     FM200800 20003KT 5SM BR OVC016
     FM201500 18004KT P6SM OVC020=



000
FTUS43 KGRB 192300
TAFGRB
TAF
KGRB 192323Z 2000/2024 20003KT P6SM SCT025
      TEMPO 2001/2003 BKN025
     FM200300 20003KT P6SM BKN022
     FM200800 20003KT 5SM BR OVC016
     FM201500 18004KT P6SM OVC020=



000
FTUS43 KGRB 191700
TAFGRB
TAF
KGRB 191732Z 1918/2018 VRB03KT P6SM SCT018
     FM192100 VRB03KT P6SM BKN020
     FM200800 21003KT 5SM BR OVC016=



000
FTUS43 KGRB 191700
TAFGRB
TAF
KGRB 191732Z 1918/2018 VRB03KT P6SM SCT018
     FM192100 VRB03KT P6SM BKN020
     FM200800 21003KT 5SM BR OVC016=



000
FTUS43 KGRB 191100
TAFGRB
TAF
KGRB 191126Z 1912/2012 VRB03KT P6SM BKN250
     FM200800 22003KT 4SM BR BKN020 BKN070=



000
FTUS43 KGRB 191100
TAFGRB
TAF
KGRB 191126Z 1912/2012 VRB03KT P6SM BKN250
     FM200800 22003KT 4SM BR BKN020 BKN070=



000
FTUS43 KGRB 190500
TAFGRB
TAF
KGRB 190530Z 1906/2006 00000KT P6SM BKN250
     FM190900 VRB02KT P6SM SCT250
     FM191500 32003KT P6SM SCT200
     FM192200 24002KT P6SM SCT020 BKN150
     FM200200 22002KT P6SM SCT015 BKN120=



000
FTUS43 KGRB 190500
TAFGRB
TAF
KGRB 190530Z 1906/2006 00000KT P6SM BKN250
     FM190900 VRB02KT P6SM SCT250
     FM191500 32003KT P6SM SCT200
     FM192200 24002KT P6SM SCT020 BKN150
     FM200200 22002KT P6SM SCT015 BKN120=



    US Dept of Commerce
    National Oceanic and Atmospheric Administration
    National Weather Service
    1325 East West Highway
    Silver Spring, MD 20910
    Page Author: NWS Internet Services Team
Disclaimer
Information Quality
Credits
Glossary
Privacy Policy
Freedom of Information Act (FOIA)
About Us
Career Opportunities